Duje Kovacevic

Olheiro - Dinamo Zagreb
19 Set 2027
Domingo
Processo

Personalidade

Adaptabilidade (8) Ambição (19) Controvérsia (16) Lealdade (20) Pressão (14) Profissionalismo (10) Espírito Esportivo (6) Temperamento (15)

Perfil

Estilo de Treinamento Democrático
Licença Continental Pro
Determinação 6
Gestão de Pessoas 13
Motivação 12
Disciplina 7
Satisfação no Trabalho
100%
Fadiga
0%
Função Olheiro
Salário 112.8K p/s
Contrato 14.03.2030

Desempenho

Comportamento Bom
Eficácia do Treinamento
51%
Desenvolvimento do Jogador
35%
Prevenção de Lesões
25%
Implementação Tática
40%

Eventos Recentes

Participou de uma reunião de recrutamento 7d atrás
Recomendou um alvo de transferência 7d atrás
Participou de uma reunião de recrutamento 14d atrás
Recomendou um alvo de transferência 14d atrás
Participou de uma reunião de recrutamento 21d atrás
Recomendou um alvo de transferência 21d atrás
Participou de uma reunião de recrutamento 28d atrás
Recomendou um alvo de transferência 28d atrás

Monitorando agora

81
Jogador Clube Status Habilidade Confiança Observado Última observação Último voto
Leon Belcar Lokomotiva Zagreb Perdido 114 / 120 86% 1 02.06.2027 Aprovar
Lewis Gibson Preston Ativo 126 / 122 40% 3 30.05.2027 -
Kristoffer Lund Birmingham Ativo 131 / 135 40% 4 30.05.2027 -
Jack Currie Oxford United Ativo 121 / 119 40% 2 29.05.2027 -
Jonathan Varane Queens Park Rangers Ativo 130 / 118 40% 2 29.05.2027 -
Oliver Arblaster Sheffield United Ativo 132 / 127 40% 1 29.05.2027 -
Harry Clarke Preston Ativo 128 / 121 40% 4 24.05.2027 -
Toby Collyer West Bromwich Albion Ativo 128 / 132 40% 2 24.05.2027 -
Samuele Angori Pisa Ativo 135 / 140 40% 2 22.05.2027 -
Tim Iroegbunam Hull City Ativo 136 / 148 40% 6 19.05.2027 -
Max Bird Birmingham Ativo 131 / 127 40% 1 19.05.2027 -
Bobby Thomas Coventry City Ativo 133 / 132 40% 3 16.05.2027 -
Aidan Morris Middlesbrough Ativo 133 / 131 40% 2 16.05.2027 -
Nobel Mendy Hull City Ativo 131 / 143 40% 1 16.05.2027 -
Issa Kaboré Wrexham Ativo 131 / 129 40% 9 12.05.2027 -
Ben Nelson Leicester City Ativo 130 / 136 40% 2 12.05.2027 -
Alfie Doughty Millwall Ativo 130 / 120 40% 2 12.05.2027 -
Gustavo Hamer Sheffield United Ativo 136 / 136 40% 2 11.05.2027 -
Azor Matusiwa Ipswich Town Ativo 136 / 142 40% 1 11.05.2027 -
Guille Rosas Gijón Ativo 139 / 148 40% 1 11.05.2027 -
Luke McNally Bristol City Ativo 134 / 139 40% 4 09.05.2027 -
Milan van Ewijk Coventry City Ativo 132 / 134 40% 5 09.05.2027 -
Raoul Bellanova Atalanta Ativo 147 / 157 40% 1 09.05.2027 -
Edoardo Bove Watford Ativo 128 / 128 40% 2 08.05.2027 -
Max Arfsten Middlesbrough Ativo 128 / 133 40% 1 08.05.2027 -
Cristian Shpendi Cesena Ativo 134 / 143 40% 1 07.05.2027 -
Alessio Zerbin Frosinone Ativo 135 / 133 40% 1 07.05.2027 -
Yasin Ayari Brighton Ativo 142 / 142 40% 3 04.05.2027 -
Liberato Cacace Wrexham Ativo 131 / 132 40% 1 03.05.2027 -
Jacques Ekomié Wrexham Ativo 133 / 124 40% 1 28.04.2027 -
Adam Randell Bristol City Ativo 129 / 134 40% 4 26.04.2027 -
Crysencio Summerville Al-Hilal Ativo 141 / 139 40% 1 24.04.2027 -
Mattéo Tramoni Pisa Ativo 129 / 122 40% 1 24.04.2027 -
Tristan Crama Millwall Ativo 123 / 131 40% 2 23.04.2027 -
Máximo Perrone Como Ativo 146 / 142 40% 1 23.04.2027 -
Danilo Veiga Lecce Ativo 128 / 127 40% 1 23.04.2027 -
Tariq Lamptey Queens Park Rangers Ativo 136 / 138 40% 3 22.04.2027 -
Victor Kristiansen Leicester City Ativo 129 / 128 40% 4 21.04.2027 -
Di'Shon Bernard Sheffield Wednesday Ativo 126 / 126 40% 2 18.04.2027 -
Petar Stanić Ludogorets Ativo 134 / 144 40% 3 17.04.2027 -
Rolando Mandragora Torino Ativo 141 / 145 40% 1 17.04.2027 -
Marquinhos Spartak Moscow Ativo 134 / 126 40% 1 16.04.2027 -
Justin Devenny Stoke City Ativo 123 / 117 40% 3 10.04.2027 -
Oscar Al-Taawoun Ativo 140 / 127 40% 2 07.04.2027 -
Hans Nicolussi Caviglia Parma Ativo 138 / 132 40% 2 07.04.2027 -
Ethan Williams Peterborough United Ativo 118 / 122 40% 1 07.04.2027 -
Lazar Samardžić Atalanta Ativo 146 / 142 40% 1 06.04.2027 -
Ilyas Ansah Hull City Ativo 132 / 142 40% 2 03.04.2027 -
Haissem Hassan Bloemfontein Celtic Ativo 137 / 122 40% 1 03.04.2027 -
Jacob Greaves Ipswich Town Ativo 132 / 129 40% 1 19.03.2027 -
Reda Khadra Qarabag Ativo 127 / 118 40% 2 18.03.2027 -
Efraín Álvarez Udinese Ativo 134 / 137 40% 2 18.03.2027 -
Romano Schmid Frosinone Ativo 142 / 145 40% 1 18.03.2027 -
Jurgen Ekkelenkamp Udinese Ativo 132 / 136 40% 1 17.03.2027 -
Wendel Zenit Ativo 141 / 147 40% 1 17.03.2027 -
Michael Baidoo Plymouth Argyle Ativo 128 / 127 40% 3 14.03.2027 -
Christos Mouzakitis Hull City Ativo 127 / 134 40% 1 14.03.2027 -
Esequiel Barco Spartak Moscow Ativo 137 / 135 40% 3 13.03.2027 -
Oleh Ocheretko Shakhtar Ativo 133 / 140 40% 1 12.03.2027 -
Pedrinho Shakhtar Ativo 137 / 130 40% 1 11.03.2027 -
Domagoj Bradarić Hellas Verona Ativo 131 / 137 40% 1 08.03.2027 -
Zian Flemming Ipswich Town Ativo 134 / 125 40% 2 04.03.2027 -
Ethan Galbraith Swansea City Ativo 133 / 126 40% 3 01.03.2027 -
Nicolas Madsen Queens Park Rangers Ativo 126 / 125 40% 2 28.02.2027 -
Welington Southampton Ativo 130 / 121 40% 1 28.02.2027 -
Luther Singh AEL Ativo 130 / 117 40% 1 24.02.2027 -
Teden Mengi Luton Town Ativo 127 / 117 40% 1 22.02.2027 -
Harrison Burrows Sheffield United Ativo 128 / 119 40% 1 17.02.2027 -
Yacine Adli Al-Shabab Ativo 131 / 147 40% 1 07.02.2027 -
Mohamed Simakan Al-Nassr Ativo 135 / 156 40% 1 06.02.2027 -
Jack Rudoni Coventry City Ativo 134 / 135 40% 1 04.02.2027 -
Samú Al-Nassr Ativo 151 / 129 40% 1 02.02.2027 -
Zakaria Aboukhlal Torino Ativo 136 / 139 40% 1 01.02.2027 -
Daniel Iversen Preston Ativo 130 / 121 40% 1 31.12.2026 -
Maduka Okoye Udinese Ativo 140 / 132 40% 1 31.12.2026 -
Mateusz Kochalski Dynamo Kyiv Ativo 134 / 129 40% 1 31.12.2026 -
Patrik Horvat Imotski Ativo 99 / 104 30% 1 / 1m 28.10.2026 -
Lenny Ilečić Rudes Ativo 90 / 93 30% 1 / 1m 28.10.2026 -
Oleksandr Petrusenko NK Osijek Ativo 106 / 106 83% 1 31.08.2026 Aprovar
Dinko Horkaš Al Wasl Ativo 119 / 143 40% 1 09.08.2026 -
Alex Kouto Horio Pisano Nagoya Grampus Ativo 109 / 118 40% 1 01.08.2026 -